createdAt,value
2019-01-14T00:01:37.125Z,7.2
2019-01-14T00:06:39.455Z,7.1
2019-01-14T00:11:41.756Z,7.1
2019-01-14T00:16:44.292Z,7.1
2019-01-14T00:21:46.535Z,7.1
2019-01-14T00:26:48.712Z,7
2019-01-14T00:31:50.885Z,7
2019-01-14T00:36:53.345Z,7
2019-01-14T00:41:55.499Z,7
2019-01-14T00:46:57.822Z,7
2019-01-14T00:52:00.218Z,7.1
2019-01-14T00:57:02.365Z,7
2019-01-14T01:02:04.712Z,7
2019-01-14T01:07:06.984Z,7.1
2019-01-14T01:12:10.327Z,7
2019-01-14T01:17:11.519Z,7
2019-01-14T01:22:15.251Z,7
2019-01-14T01:27:16.168Z,6.9
2019-01-14T01:32:18.542Z,6.9
2019-01-14T01:37:21.206Z,6.9
2019-01-14T01:42:23.094Z,6.9
2019-01-14T01:47:25.293Z,6.8
2019-01-14T01:52:27.708Z,6.8
2019-01-14T01:57:31.284Z,6.8
2019-01-14T02:02:32.191Z,6.8
2019-01-14T02:07:34.495Z,6.8
2019-01-14T02:12:36.879Z,6.8
2019-01-14T02:17:39.036Z,6.7
2019-01-14T02:22:41.486Z,6.7
2019-01-14T02:27:43.630Z,6.7
2019-01-14T02:32:46.088Z,6.7
2019-01-14T02:37:48.359Z,6.7
2019-01-14T02:42:50.691Z,6.7
2019-01-14T02:47:52.899Z,6.6
2019-01-14T02:52:56.328Z,6.7
2019-01-14T02:57:57.481Z,6.6
2019-01-14T03:02:59.666Z,6.6
2019-01-14T03:08:02.084Z,6.5
2019-01-14T03:13:04.353Z,6.5
2019-01-14T03:18:06.730Z,6.5
2019-01-14T03:23:09.012Z,6.4
2019-01-14T03:28:11.173Z,6.3
2019-01-14T03:33:13.666Z,6.2
2019-01-14T03:38:15.824Z,6.2
2019-01-14T03:43:18.162Z,6.2
2019-01-14T03:48:20.418Z,6.2
2019-01-14T03:53:22.672Z,6.2
2019-01-14T03:58:24.944Z,6.2
2019-01-14T04:03:27.214Z,6.3
2019-01-14T04:08:29.581Z,6.4
2019-01-14T04:13:31.834Z,6.4
2019-01-14T04:18:34.125Z,6.4
2019-01-14T04:23:36.561Z,6.4
2019-01-14T04:28:38.744Z,6.4
2019-01-14T04:33:42.386Z,6.4
2019-01-14T04:38:43.347Z,6.4
2019-01-14T04:43:45.819Z,6.5
2019-01-14T04:48:47.919Z,6.5
2019-01-14T04:53:50.150Z,6.5
2019-01-14T05:03:54.784Z,6.5
2019-01-14T05:08:57.033Z,6.4
2019-01-14T05:13:59.360Z,6.4
2019-01-14T05:19:01.728Z,6.3
2019-01-14T05:24:03.925Z,6.3
2019-01-14T05:29:06.231Z,6.2
2019-01-14T05:34:08.674Z,6.2
2019-01-14T05:39:10.828Z,6.3
2019-01-14T05:44:13.192Z,6.3
2019-01-14T05:49:16.605Z,6.4
2019-01-14T05:54:17.741Z,6.4
2019-01-14T05:59:20.052Z,6.4
2019-01-14T06:04:22.433Z,6.3
2019-01-14T06:09:24.718Z,6.2
2019-01-14T06:14:26.953Z,6.2
2019-01-14T06:19:29.205Z,6.3
2019-01-14T06:24:31.431Z,6.4
2019-01-14T06:29:33.719Z,6.4
2019-01-14T06:34:36.072Z,6.4
2019-01-14T06:39:38.447Z,6.4
2019-01-14T06:44:40.751Z,6.4
2019-01-14T06:49:43.007Z,6.3
2019-01-14T06:54:45.260Z,6.2
2019-01-14T06:59:47.628Z,6.1
2019-01-14T07:04:49.824Z,6.1
2019-01-14T07:09:52.136Z,6
2019-01-14T07:14:54.492Z,6.1
2019-01-14T07:19:56.692Z,6.1
2019-01-14T07:24:59.026Z,6.1
2019-01-14T07:30:01.293Z,6.1
2019-01-14T07:35:03.679Z,6.2
2019-01-14T07:40:06.025Z,6.4
2019-01-14T07:45:08.295Z,6.4
2019-01-14T07:50:10.633Z,6.4
2019-01-14T07:55:12.839Z,6.4
2019-01-14T08:00:15.044Z,6.3
2019-01-14T08:05:17.457Z,6.3
2019-01-14T08:10:19.751Z,6.2
2019-01-14T08:15:22.000Z,6.3
2019-01-14T08:20:24.252Z,6.4
2019-01-14T08:25:26.505Z,6.4
2019-01-14T08:30:28.919Z,6.4
2019-01-14T08:35:31.204Z,6.4
2019-01-14T08:40:33.459Z,6.4
2019-01-14T08:45:35.798Z,6.4
2019-01-14T08:50:38.103Z,6.4
2019-01-14T08:55:40.381Z,6.5
2019-01-14T09:00:42.897Z,6.5
2019-01-14T09:05:44.853Z,6.5
2019-01-14T09:10:47.195Z,6.5
2019-01-14T09:15:49.440Z,6.5
2019-01-14T09:20:51.937Z,6.5
2019-01-14T09:25:54.218Z,6.5
2019-01-14T09:30:56.341Z,6.5
2019-01-14T09:35:58.739Z,6.5
2019-01-14T09:41:00.969Z,6.4
2019-01-14T09:46:03.208Z,6.4
2019-01-14T09:51:05.471Z,6.4
2019-01-14T09:56:07.760Z,6.6
2019-01-14T10:01:10.136Z,6.8
2019-01-14T10:06:12.531Z,6.9
2019-01-14T10:11:14.766Z,6.9
2019-01-14T10:16:16.995Z,6.8
2019-01-14T10:21:19.319Z,6.9
2019-01-14T10:26:21.718Z,6.9
2019-01-14T10:31:23.902Z,6.9
2019-01-14T10:36:26.175Z,7.1
2019-01-14T10:41:28.440Z,7.1
2019-01-14T10:46:30.903Z,7.2
2019-01-14T10:51:33.069Z,7.3
2019-01-14T10:56:35.364Z,7.5
2019-01-14T11:01:37.633Z,7.8
2019-01-14T11:06:39.920Z,8.1
2019-01-14T11:11:42.293Z,8
2019-01-14T11:16:45.975Z,7.9
2019-01-14T11:21:46.887Z,7.8
2019-01-14T11:26:49.186Z,7.7
2019-01-14T11:31:51.399Z,7.5
2019-01-14T11:36:53.747Z,7.3
2019-01-14T11:41:56.017Z,7.6
2019-01-14T11:46:58.316Z,8.1
2019-01-14T11:52:00.633Z,8.6
2019-01-14T11:57:02.979Z,9.4
2019-01-14T12:02:05.185Z,9.8
2019-01-14T12:07:07.476Z,10.4
2019-01-14T12:12:10.893Z,10.3
2019-01-14T12:17:12.027Z,9.2
2019-01-14T12:22:14.384Z,8.7
2019-01-14T12:27:16.803Z,8.5
2019-01-14T12:32:18.875Z,8.2
2019-01-14T12:37:21.235Z,8.2
2019-01-14T12:42:23.597Z,8.2
2019-01-14T12:47:25.777Z,8.2
2019-01-14T12:52:28.123Z,8.3
2019-01-14T12:57:30.407Z,8.2
2019-01-14T13:02:32.735Z,7.8
2019-01-14T13:07:35.038Z,7.4
2019-01-14T13:12:37.282Z,7.1
2019-01-14T13:17:39.718Z,6.8
2019-01-14T13:22:41.953Z,6.7
2019-01-14T13:27:44.127Z,6.5
2019-01-14T13:32:46.398Z,6.4
2019-01-14T13:37:48.800Z,6.5
2019-01-14T13:42:51.084Z,6.7
2019-01-14T13:47:53.331Z,6.8
2019-01-14T13:52:56.840Z,6.9
2019-01-14T13:57:59.905Z,7.1
2019-01-14T14:03:00.156Z,7.2
2019-01-14T14:08:02.558Z,6.9
2019-01-14T14:13:04.876Z,6.7
2019-01-14T14:18:07.119Z,6.6
2019-01-14T14:23:09.440Z,6.4
2019-01-14T14:28:11.782Z,6.5
2019-01-14T14:33:14.046Z,6.7
2019-01-14T14:38:16.216Z,6.8
2019-01-14T14:43:18.573Z,6.8
2019-01-14T14:48:20.942Z,6.8
2019-01-14T14:53:23.419Z,6.7
2019-01-14T14:58:25.441Z,6.5
2019-01-14T15:03:27.846Z,6.4
2019-01-14T15:08:30.066Z,6.3
2019-01-14T15:13:32.305Z,6.2
2019-01-14T15:18:34.535Z,6.1
2019-01-14T15:23:38.318Z,6.1
2019-01-14T15:28:40.265Z,5.9
2019-01-14T15:33:41.459Z,5.8
2019-01-14T15:38:43.816Z,5.7
2019-01-14T15:43:46.089Z,5.7
2019-01-14T15:48:48.328Z,5.6
2019-01-14T15:53:50.774Z,5.5
2019-01-14T15:58:53.019Z,5.3
2019-01-14T16:03:55.262Z,5.2
2019-01-14T16:08:57.675Z,5.1
2019-01-14T16:13:59.869Z,5
2019-01-14T16:19:02.115Z,4.9
2019-01-14T16:24:04.464Z,4.8
2019-01-14T16:29:06.729Z,4.7
2019-01-14T16:34:08.961Z,4.7
2019-01-14T16:39:11.392Z,4.6
2019-01-14T16:44:13.570Z,4.5
2019-01-14T16:49:16.013Z,4.5
2019-01-14T16:54:18.295Z,4.4
2019-01-14T16:59:22.178Z,4.3
2019-01-14T17:04:22.797Z,4.3
2019-01-14T17:09:25.191Z,4.2
2019-01-14T17:19:29.677Z,4.2
2019-01-14T17:24:32.362Z,4.1
2019-01-14T17:29:34.323Z,4.1
2019-01-14T17:34:36.519Z,4.1
2019-01-14T17:39:38.835Z,4.1
2019-01-14T17:44:41.281Z,4.2
2019-01-14T17:49:43.498Z,4.2
2019-01-14T17:54:45.724Z,4.2
2019-01-14T17:59:48.154Z,4.2
2019-01-14T18:04:50.363Z,4.2
2019-01-14T18:09:52.653Z,4.2
2019-01-14T18:14:54.935Z,4.2
2019-01-14T18:19:57.145Z,4.3
2019-01-14T18:24:59.639Z,4.3
2019-01-14T18:30:01.781Z,4.4
2019-01-14T18:35:05.245Z,4.4
2019-01-14T18:40:06.429Z,4.3
2019-01-14T18:45:08.617Z,4.3
2019-01-14T18:50:10.902Z,4.2
2019-01-14T18:55:13.156Z,4.2
2019-01-14T19:00:15.536Z,4.2
2019-01-14T19:05:17.821Z,4.2
2019-01-14T19:10:24.221Z,4.2
2019-01-14T19:15:22.505Z,4.2
2019-01-14T19:20:24.765Z,4.2
2019-01-14T19:25:26.984Z,4.2
2019-01-14T19:30:29.357Z,4.3
2019-01-14T19:35:31.550Z,4.4
2019-01-14T19:40:33.860Z,4.3
2019-01-14T19:45:36.332Z,4.4
2019-01-14T19:50:38.436Z,4.3
2019-01-14T19:55:40.737Z,4.3
2019-01-14T20:00:43.138Z,4.4
2019-01-14T20:05:45.397Z,4.4
2019-01-14T20:10:49.899Z,4.4
2019-01-14T20:15:51.106Z,4.4
2019-01-14T20:20:52.211Z,4.5
2019-01-14T20:25:54.493Z,4.5
2019-01-14T20:30:57.141Z,4.4
2019-01-14T20:41:01.436Z,4.3
2019-01-14T20:46:03.698Z,4.2
2019-01-14T20:51:06.078Z,4.1
2019-01-14T20:56:08.312Z,4.2
2019-01-14T21:01:10.615Z,4.2
2019-01-14T21:06:12.830Z,4.1
2019-01-14T21:11:15.208Z,4.2
2019-01-14T21:16:17.451Z,4.1
2019-01-14T21:21:19.770Z,4.1
2019-01-14T21:26:22.095Z,4.1
2019-01-14T21:31:24.354Z,4.1
2019-01-14T21:36:26.610Z,4.1
2019-01-14T21:41:31.430Z,4.1
2019-01-14T21:46:31.711Z,4.2
2019-01-14T21:51:33.635Z,4.1
2019-01-14T21:56:35.758Z,4.1
2019-01-14T22:01:38.206Z,4.1
2019-01-14T22:06:40.358Z,4.1
2019-01-14T22:11:42.667Z,4.1
2019-01-14T22:16:45.112Z,4.1
2019-01-14T22:21:47.380Z,4.1
2019-01-14T22:26:49.529Z,4.1
2019-01-14T22:31:51.859Z,4.1
2019-01-14T22:36:54.261Z,4.1
2019-01-14T22:41:56.516Z,4.1
2019-01-14T22:46:58.777Z,4.1
2019-01-14T22:52:01.037Z,4
2019-01-14T22:57:03.394Z,3.9
2019-01-14T23:02:05.566Z,4
2019-01-14T23:07:07.887Z,4
2019-01-14T23:12:10.250Z,4
2019-01-14T23:17:12.482Z,4
2019-01-14T23:22:16.064Z,4
2019-01-14T23:27:17.255Z,4
2019-01-14T23:32:19.387Z,4
2019-01-14T23:37:21.627Z,4
2019-01-14T23:42:23.961Z,3.9
2019-01-14T23:47:26.293Z,3.8
2019-01-14T23:52:28.576Z,3.8
2019-01-14T23:57:30.886Z,3.8
